Time;durP1;ratioP1;P1;durP2;ratioP2;P2;SDS_P1;SDS_P2;PMS_P1;PMS_P2;Temp;Humidity;BMP_temperature;BMP_pressure;BME280_temperature;BME280_humidity;BME280_pressure;Samples;Min_cycle;Max_cycle;Signal;HPM_P1;HPM_P2
2023/08/23 00:01:16;;;;;;;;;13.50;13.00;;;;;23.81;42.48;101153.00;109965;1265;19917;-84
2023/08/23 00:03:42;;;;;;;;;13.50;13.50;;;;;23.80;42.59;101153.17;109993;1251;20142;-85
2023/08/23 00:06:08;;;;;;;;;17.00;14.00;;;;;23.78;42.61;101155.10;110000;1251;22093;-85
2023/08/23 00:08:34;;;;;;;;;13.00;13.00;;;;;23.75;42.55;101155.77;109976;1265;20120;-84
2023/08/23 00:11:00;;;;;;;;;15.00;14.00;;;;;23.75;42.64;101160.75;109990;1265;20035;-84
2023/08/23 00:13:26;;;;;;;;;15.67;14.67;;;;;23.74;42.83;101156.98;110013;1265;20905;-84
2023/08/23 00:15:52;;;;;;;;;15.50;14.00;;;;;23.70;42.97;101152.07;110006;1265;20163;-83
2023/08/23 00:18:18;;;;;;;;;19.00;17.67;;;;;23.72;43.14;101151.08;110017;1265;19301;-82
2023/08/23 00:20:44;;;;;;;;;19.50;17.50;;;;;23.71;43.29;101153.38;109961;1266;19266;-84
2023/08/23 00:23:10;;;;;;;;;17.00;17.00;;;;;23.70;43.35;101152.67;109984;1250;23129;-83
2023/08/23 00:25:36;;;;;;;;;18.00;18.00;;;;;23.68;43.46;101153.27;110021;1265;19219;-84
2023/08/23 00:28:02;;;;;;;;;15.00;15.00;;;;;23.66;44.01;101151.59;110036;1250;19674;-83
2023/08/23 00:30:28;;;;;;;;;18.00;17.00;;;;;23.63;44.38;101147.56;110000;1265;22751;-84
2023/08/23 00:32:54;;;;;;;;;17.00;17.00;;;;;23.63;44.55;101149.80;110038;1250;21838;-85
2023/08/23 00:35:20;;;;;;;;;15.00;15.00;;;;;23.64;44.45;101150.79;110017;1251;20703;-83
2023/08/23 00:37:46;;;;;;;;;15.00;14.00;;;;;23.63;44.54;101144.77;110013;1265;21409;-84
2023/08/23 00:40:12;;;;;;;;;17.00;15.00;;;;;23.61;44.70;101140.95;110024;1250;20024;-83
2023/08/23 00:42:39;;;;;;;;;21.00;18.00;;;;;23.60;44.59;101142.70;110009;1250;22530;-83
2023/08/23 00:45:04;;;;;;;;;15.00;15.00;;;;;23.57;44.91;101141.62;109997;1250;21503;-84
2023/08/23 00:47:30;;;;;;;;;15.00;15.00;;;;;23.59;44.78;101142.27;109990;1251;21274;-84
2023/08/23 00:49:57;;;;;;;;;18.50;16.50;;;;;23.55;44.93;101140.15;110026;1251;21222;-83
2023/08/23 00:52:23;;;;;;;;;16.50;13.00;;;;;23.54;45.20;101138.55;110000;1253;21618;-86
2023/08/23 00:54:49;;;;;;;;;17.00;15.00;;;;;23.50;45.23;101140.36;110022;1266;20004;-84
2023/08/23 00:57:15;;;;;;;;;18.00;17.00;;;;;23.49;45.60;101143.75;110010;1250;22996;-84
2023/08/23 00:59:41;;;;;;;;;15.00;15.00;;;;;23.49;45.84;101145.29;109998;1265;19911;-84
2023/08/23 01:02:07;;;;;;;;;15.00;14.00;;;;;23.48;45.93;101142.72;110025;1260;19238;-84
2023/08/23 01:04:33;;;;;;;;;17.00;14.67;;;;;23.45;46.09;101141.14;110036;1251;20818;-83
2023/08/23 01:06:59;;;;;;;;;13.00;13.00;;;;;23.44;45.96;101142.52;109975;1260;23733;-84
2023/08/23 01:09:25;;;;;;;;;16.00;16.00;;;;;23.43;46.03;101145.90;110050;1250;21257;-84
2023/08/23 01:11:51;;;;;;;;;18.00;17.00;;;;;23.43;45.27;101143.94;110020;1251;22537;-84
2023/08/23 01:14:17;;;;;;;;;17.00;17.00;;;;;23.37;45.61;101140.23;110042;1250;21483;-84
2023/08/23 01:16:43;;;;;;;;;17.00;17.00;;;;;23.36;45.47;101137.39;110007;1266;19976;-83
2023/08/23 01:19:10;;;;;;;;;16.00;16.00;;;;;23.33;45.42;101140.41;109999;1266;19551;-83
2023/08/23 01:21:36;;;;;;;;;20.00;18.00;;;;;23.35;45.28;101139.91;110022;1265;20180;-83
2023/08/23 01:24:08;;;;;;;;;16.00;16.00;;;;;23.36;45.45;101142.70;110004;1251;20137;-83
2023/08/23 01:26:34;;;;;;;;;14.00;14.00;;;;;23.30;45.49;101146.66;109963;1266;20984;-83
2023/08/23 01:29:00;;;;;;;;;15.00;15.00;;;;;23.31;45.60;101146.88;110034;1250;21601;-83
2023/08/23 01:31:26;;;;;;;;;14.00;13.00;;;;;23.32;45.54;101146.60;109979;1251;18983;-83
2023/08/23 01:33:52;;;;;;;;;18.00;16.00;;;;;23.30;45.50;101150.76;110021;1251;20815;-81
2023/08/23 01:36:18;;;;;;;;;17.00;17.00;;;;;23.25;45.73;101152.19;110005;1251;21741;-83
2023/08/23 01:38:44;;;;;;;;;18.00;17.67;;;;;23.24;45.82;101153.99;110001;1266;19275;-83
2023/08/23 01:41:10;;;;;;;;;22.00;20.00;;;;;23.20;45.89;101157.40;109947;1266;20994;-82
2023/08/23 01:43:36;;;;;;;;;18.00;18.00;;;;;23.22;45.77;101161.21;109974;1251;21815;-82
2023/08/23 01:46:02;;;;;;;;;18.00;16.00;;;;;23.21;45.74;101164.61;109988;1266;19255;-83
2023/08/23 01:48:28;;;;;;;;;20.00;16.00;;;;;23.21;45.86;101166.30;110035;1266;23611;-83
2023/08/23 01:50:54;;;;;;;;;17.00;17.00;;;;;23.21;45.91;101170.45;110032;1265;22839;-82
2023/08/23 01:53:20;;;;;;;;;17.00;16.00;;;;;23.22;45.61;101172.53;110062;1251;20008;-82
2023/08/23 01:55:46;;;;;;;;;19.33;17.67;;;;;23.19;45.65;101175.38;110048;1266;19385;-83
2023/08/23 01:58:12;;;;;;;;;16.00;16.00;;;;;23.13;45.86;101175.17;110044;1251;21567;-83
2023/08/23 02:00:38;;;;;;;;;17.50;16.50;;;;;23.12;45.69;101174.35;110004;1251;22546;-83
2023/08/23 02:03:04;;;;;;;;;17.00;16.00;;;;;23.10;45.85;101177.52;110016;1266;19601;-83
2023/08/23 02:05:31;;;;;;;;;16.00;16.00;;;;;23.11;45.68;101176.77;109978;1251;21768;-83
2023/08/23 02:07:57;;;;;;;;;13.00;13.00;;;;;23.09;45.70;101181.13;110031;1266;19304;-83
2023/08/23 02:10:23;;;;;;;;;17.00;16.00;;;;;23.07;45.86;101181.14;110009;1265;20600;-83
2023/08/23 02:12:49;;;;;;;;;18.00;17.00;;;;;23.05;45.78;101184.52;110020;1250;20105;-82
2023/08/23 02:15:15;;;;;;;;;16.00;16.00;;;;;23.06;45.73;101179.29;109988;1265;20642;-84
2023/08/23 02:17:41;;;;;;;;;16.00;16.00;;;;;23.05;45.52;101181.80;110034;1259;19441;-83
2023/08/23 02:20:07;;;;;;;;;14.00;14.00;;;;;22.98;45.66;101176.28;110047;1251;20143;-83
2023/08/23 02:22:33;;;;;;;;;18.00;16.00;;;;;22.97;45.72;101176.29;109965;1250;20117;-83
2023/08/23 02:24:59;;;;;;;;;16.00;14.00;;;;;23.00;45.31;101179.28;109940;1250;23225;-83
2023/08/23 02:27:25;;;;;;;;;14.00;14.00;;;;;22.98;45.41;101177.70;109973;1250;22879;-85
2023/08/23 02:29:51;;;;;;;;;14.00;14.00;;;;;22.98;45.35;101180.55;109935;1251;19746;-84
2023/08/23 02:32:17;;;;;;;;;16.33;16.00;;;;;22.94;45.36;101174.81;109988;1265;20023;-84
2023/08/23 02:34:43;;;;;;;;;17.00;16.00;;;;;22.91;45.55;101175.24;110030;1250;21494;-84
2023/08/23 02:37:09;;;;;;;;;15.00;15.00;;;;;22.94;45.19;101172.89;109975;1251;19948;-84
2023/08/23 02:39:35;;;;;;;;;15.00;13.50;;;;;22.90;45.29;101171.59;110011;1265;19419;-82
2023/08/23 02:42:01;;;;;;;;;18.00;15.00;;;;;22.86;45.32;101170.23;110005;1252;21619;-84
2023/08/23 02:44:27;;;;;;;;;14.00;13.00;;;;;22.85;45.14;101168.16;110009;1266;19124;-83
2023/08/23 02:46:53;;;;;;;;;14.00;14.00;;;;;22.84;45.22;101162.91;110008;1266;19429;-83
2023/08/23 02:49:19;;;;;;;;;17.00;16.00;;;;;22.83;45.18;101162.14;110002;1266;21713;-83
2023/08/23 02:51:45;;;;;;;;;16.00;14.00;;;;;22.82;45.25;101167.50;110012;1250;20014;-82
2023/08/23 02:54:11;;;;;;;;;20.00;18.00;;;;;22.80;45.31;101166.77;110002;1265;23605;-83
2023/08/23 02:56:37;;;;;;;;;16.00;15.00;;;;;22.84;45.46;101164.06;109981;1250;22676;-83
2023/08/23 02:59:03;;;;;;;;;16.00;16.00;;;;;22.84;45.21;101159.25;110006;1265;19225;-86
2023/08/23 03:01:29;;;;;;;;;17.00;16.50;;;;;22.78;45.54;101155.84;110001;1265;19460;-84
2023/08/23 03:03:55;;;;;;;;;16.00;15.50;;;;;22.77;45.55;101150.42;110013;1251;22745;-83
2023/08/23 03:06:21;;;;;;;;;15.50;14.50;;;;;22.77;45.81;101149.00;110010;1250;19946;-84
2023/08/23 03:08:48;;;;;;;;;13.00;13.00;;;;;22.75;45.65;101149.50;109995;1250;19350;-84
2023/08/23 03:11:14;;;;;;;;;13.00;13.00;;;;;22.74;45.64;101150.48;110002;1250;20178;-83
2023/08/23 03:13:40;;;;;;;;;20.50;18.00;;;;;22.76;45.66;101149.23;109989;1259;19405;-82
2023/08/23 03:16:06;;;;;;;;;15.00;15.00;;;;;22.73;45.73;101146.48;110000;1251;21494;-83
2023/08/23 03:18:32;;;;;;;;;21.00;18.00;;;;;22.69;45.84;101147.58;110031;1250;21176;-83
2023/08/23 03:20:58;;;;;;;;;18.00;14.00;;;;;22.67;45.80;101152.17;109999;1250;20208;-82
2023/08/23 03:23:24;;;;;;;;;17.00;16.00;;;;;22.68;45.90;101154.30;110011;1251;20819;-82
2023/08/23 03:25:50;;;;;;;;;17.00;16.00;;;;;22.69;46.09;101153.92;110020;1250;21545;-84
2023/08/23 03:28:16;;;;;;;;;16.00;16.00;;;;;22.65;45.95;101157.80;109994;1265;19907;-83
2023/08/23 03:30:42;;;;;;;;;16.00;16.00;;;;;22.64;46.07;101160.20;109985;1266;19490;-82
2023/08/23 03:33:08;;;;;;;;;13.00;13.00;;;;;22.65;45.97;101168.40;109966;1267;19900;-83
2023/08/23 03:35:34;;;;;;;;;17.67;16.00;;;;;22.62;45.85;101169.91;109913;1266;20849;-83
2023/08/23 03:38:00;;;;;;;;;18.00;16.50;;;;;22.61;46.10;101168.49;109986;1250;20968;-83
2023/08/23 03:40:26;;;;;;;;;16.00;15.00;;;;;22.57;46.15;101172.33;110000;1250;21538;-82
2023/08/23 03:42:52;;;;;;;;;16.00;15.00;;;;;22.59;46.31;101171.56;109993;1265;19200;-84
2023/08/23 03:45:18;;;;;;;;;13.33;13.33;;;;;22.56;46.07;101173.68;109983;1250;20861;-81
2023/08/23 03:47:44;;;;;;;;;16.00;15.00;;;;;22.51;46.19;101179.46;110008;1266;20300;-83
2023/08/23 03:50:10;;;;;;;;;13.00;13.00;;;;;22.52;46.06;101186.41;109970;1250;20026;-83
2023/08/23 03:52:36;;;;;;;;;17.00;16.00;;;;;22.52;46.24;101182.58;110009;1265;19435;-83
2023/08/23 03:55:02;;;;;;;;;15.50;15.00;;;;;22.53;46.33;101172.98;109989;1250;21209;-83
2023/08/23 03:57:28;;;;;;;;;19.00;17.00;;;;;22.50;46.11;101164.73;109983;1250;19945;-83
2023/08/23 03:59:54;;;;;;;;;20.00;19.00;;;;;22.47;46.33;101164.13;110006;1266;20841;-83
2023/08/23 04:02:20;;;;;;;;;21.00;16.00;;;;;22.49;46.21;101163.09;109982;1259;23286;-83
2023/08/23 04:04:46;;;;;;;;;16.50;15.00;;;;;22.47;46.56;101163.80;109957;1266;23036;-83
2023/08/23 04:07:12;;;;;;;;;16.00;14.00;;;;;22.48;46.39;101172.30;109964;1266;23058;-83
2023/08/23 04:09:38;;;;;;;;;16.50;15.00;;;;;22.49;46.46;101175.87;109961;1265;20331;-83
2023/08/23 04:12:04;;;;;;;;;17.00;16.33;;;;;22.49;46.69;101179.46;109929;1266;19332;-83
2023/08/23 04:14:30;;;;;;;;;13.00;13.00;;;;;22.49;46.50;101175.31;109977;1266;19427;-83
2023/08/23 04:16:56;;;;;;;;;12.50;12.50;;;;;22.46;46.57;101174.39;109954;1266;20532;-82
2023/08/23 04:19:23;;;;;;;;;15.00;15.00;;;;;22.45;46.41;101174.55;109954;1266;22178;-83
2023/08/23 04:21:49;;;;;;;;;18.00;15.00;;;;;22.45;46.46;101175.52;109997;1251;20804;-83
2023/08/23 04:24:15;;;;;;;;;16.00;16.00;;;;;22.45;46.56;101170.90;109994;1251;21534;-83
2023/08/23 04:26:41;;;;;;;;;16.00;13.00;;;;;22.42;46.65;101169.25;109981;1251;21390;-83
2023/08/23 04:29:07;;;;;;;;;18.00;15.50;;;;;22.45;46.73;101167.94;109992;1250;23546;-82
2023/08/23 04:31:33;;;;;;;;;16.00;16.00;;;;;22.45;46.54;101164.45;110096;1251;22772;-82
2023/08/23 04:33:59;;;;;;;;;21.67;18.00;;;;;22.43;46.44;101162.97;110091;1251;19380;-86
2023/08/23 04:36:25;;;;;;;;;16.00;16.00;;;;;22.45;46.57;101167.89;110059;1251;19617;-82
2023/08/23 04:38:51;;;;;;;;;17.00;16.00;;;;;22.46;46.56;101166.30;110031;1260;21489;-83
2023/08/23 04:41:17;;;;;;;;;16.00;16.00;;;;;22.47;46.81;101164.99;110046;1250;20085;-83
2023/08/23 04:43:43;;;;;;;;;17.00;16.00;;;;;22.46;46.78;101163.95;109993;1265;20866;-83
2023/08/23 04:46:09;;;;;;;;;17.50;16.00;;;;;22.47;46.80;101168.44;109962;1266;21895;-83
2023/08/23 04:48:35;;;;;;;;;16.00;16.00;;;;;22.45;46.70;101176.73;109990;1266;23701;-82
2023/08/23 04:51:01;;;;;;;;;15.50;15.50;;;;;22.45;46.68;101179.57;109983;1259;19247;-83
2023/08/23 04:53:27;;;;;;;;;17.00;17.00;;;;;22.47;46.62;101180.89;109964;1251;23267;-84
2023/08/23 04:55:53;;;;;;;;;15.00;15.00;;;;;22.50;46.75;101186.56;109969;1266;20596;-83
2023/08/23 04:58:19;;;;;;;;;17.00;16.00;;;;;22.54;46.77;101194.16;110054;1259;22341;-83
2023/08/23 05:00:45;;;;;;;;;15.50;14.00;;;;;22.52;46.80;101198.91;109980;1251;21527;-84
2023/08/23 05:03:12;;;;;;;;;19.00;17.50;;;;;22.22;47.77;101204.45;109987;1266;19934;-85
2023/08/23 05:05:38;;;;;;;;;17.00;16.00;;;;;21.52;49.58;101200.92;110026;1266;22994;-83
2023/08/23 05:08:04;;;;;;;;;18.50;18.00;;;;;21.45;50.02;101190.59;109994;1266;22324;-84
2023/08/23 05:10:30;;;;;;;;;16.00;16.00;;;;;21.31;50.22;101191.65;109934;1266;19213;-84
2023/08/23 05:12:56;;;;;;;;;21.00;18.50;;;;;21.41;50.22;101188.88;110021;1265;19452;-84
2023/08/23 05:15:22;;;;;;;;;15.00;14.00;;;;;21.43;50.34;101188.62;110045;1250;21800;-82
2023/08/23 05:17:48;;;;;;;;;12.00;12.00;;;;;21.70;49.90;101183.52;109980;1266;19232;-79
2023/08/23 05:20:15;;;;;;;;;11.00;11.00;;;;;22.32;48.46;101183.59;109951;1251;23109;-77
2023/08/23 05:22:41;;;;;;;;;14.00;12.50;;;;;22.67;47.35;101185.16;110025;1260;20184;-77
2023/08/23 05:25:07;;;;;;;;;11.00;9.00;;;;;22.90;46.69;101183.99;110015;1260;19321;-77
2023/08/23 05:27:33;;;;;;;;;15.50;11.50;;;;;23.09;46.59;101192.66;110014;1266;19567;-77
2023/08/23 05:30:01;;;;;;;;;190.50;139.00;;;;;23.31;46.75;101197.55;109993;1265;20140;-75
2023/08/23 05:32:27;;;;;;;;;364.50;270.50;;;;;23.36;46.43;101202.09;110028;1265;18911;-74
2023/08/23 05:34:53;;;;;;;;;275.00;208.50;;;;;23.44;46.37;101200.73;110003;1251;20860;-76
2023/08/23 05:37:19;;;;;;;;;261.00;191.00;;;;;23.45;46.10;101200.97;110003;1266;20225;-76
2023/08/23 05:39:47;;;;;;;;;233.00;174.00;;;;;23.55;46.08;101197.51;110038;1265;19345;-76
2023/08/23 05:42:13;;;;;;;;;156.50;123.50;;;;;23.66;46.36;101197.71;110025;1265;21027;-79
2023/08/23 05:44:39;;;;;;;;;138.00;113.00;;;;;23.75;46.66;101200.30;110022;1251;21672;-76
2023/08/23 05:47:05;;;;;;;;;115.50;85.50;;;;;23.80;46.49;101201.75;109997;1259;19125;-77
2023/08/23 05:49:31;;;;;;;;;99.50;74.50;;;;;23.86;46.81;101200.59;109997;1266;23029;-76
2023/08/23 05:51:57;;;;;;;;;99.50;73.50;;;;;23.92;46.95;101204.39;109957;1265;20154;-78
2023/08/23 05:54:24;;;;;;;;;;;;;;;23.93;47.05;101210.90;109966;1266;19968;-76
2023/08/23 05:56:50;;;;;;;;;88.00;63.00;;;;;23.96;46.86;101213.02;110003;1259;19083;-79
2023/08/23 05:59:16;;;;;;;;;77.00;57.00;;;;;24.01;46.80;101211.08;109944;1259;20158;-77
2023/08/23 06:01:42;;;;;;;;;83.50;60.00;;;;;24.04;46.77;101213.80;109943;1251;19790;-76
2023/08/23 06:04:08;;;;;;;;;74.00;54.50;;;;;24.11;46.42;101215.02;109959;1266;19571;-76
2023/08/23 06:06:34;;;;;;;;;61.00;50.00;;;;;24.13;46.52;101219.66;110001;1265;20152;-78
2023/08/23 06:09:00;;;;;;;;;69.00;49.00;;;;;24.16;46.55;101215.33;110008;1251;20033;-77
2023/08/23 06:11:26;;;;;;;;;50.00;40.00;;;;;24.17;46.60;101222.77;110230;1251;20855;-96
2023/08/23 06:13:52;;;;;;;;;;;;;;;24.00;46.32;101227.67;110149;1266;22513;-94
2023/08/23 06:16:18;;;;;;;;;28.00;23.00;;;;;23.99;46.38;101227.84;110003;1251;20148;-87
2023/08/23 06:18:44;;;;;;;;;21.00;21.00;;;;;23.86;46.51;101229.30;109983;1251;20811;-79
2023/08/23 06:21:10;;;;;;;;;21.50;20.00;;;;;23.85;46.37;101230.19;110032;1265;23049;-90
2023/08/23 06:23:43;;;;;;;;;18.67;18.00;;;;;23.78;46.57;101226.77;110008;1266;20882;-90
2023/08/23 06:26:09;;;;;;;;;20.00;17.00;;;;;23.79;46.79;101233.88;109997;1251;21007;-93
2023/08/23 06:28:35;;;;;;;;;17.00;17.00;;;;;23.79;46.66;101238.75;110036;1251;21812;-79
2023/08/23 06:31:01;;;;;;;;;16.00;14.00;;;;;23.81;46.63;101237.75;110018;1266;20292;-76
2023/08/23 06:33:27;;;;;;;;;15.00;15.00;;;;;23.92;46.47;101232.23;110044;1266;19691;-76
2023/08/23 06:35:53;;;;;;;;;14.00;14.00;;;;;24.04;46.27;101233.02;109973;1265;20110;-78
2023/08/23 06:38:19;;;;;;;;;12.00;12.00;;;;;24.13;46.20;101231.88;110016;1265;23139;-80
2023/08/23 06:40:45;;;;;;;;;16.00;14.00;;;;;24.15;45.82;101231.21;110007;1259;22389;-80
2023/08/23 06:43:11;;;;;;;;;11.00;11.00;;;;;23.98;45.55;101228.50;110005;1266;22399;-77
2023/08/23 06:45:37;;;;;;;;;17.00;15.00;;;;;24.04;45.59;101227.32;109971;1250;19909;-76
2023/08/23 06:48:03;;;;;;;;;17.00;15.00;;;;;23.78;45.59;101222.11;110001;1265;19311;-75
2023/08/23 06:50:29;;;;;;;;;14.50;13.50;;;;;23.57;45.71;101219.70;109946;1250;23424;-74
2023/08/23 06:52:55;;;;;;;;;14.00;13.00;;;;;23.50;46.09;101218.14;109943;1266;20145;-75
2023/08/23 06:55:23;;;;;;;;;14.00;14.00;;;;;23.48;46.20;101216.92;109960;1251;22305;-75
2023/08/23 06:57:49;;;;;;;;;17.00;16.00;;;;;23.50;46.58;101210.73;109948;1266;23003;-77
2023/08/23 07:00:15;;;;;;;;;17.00;16.00;;;;;23.50;46.65;101209.98;109983;1250;19959;-74
2023/08/23 07:02:41;;;;;;;;;17.00;17.00;;;;;23.48;46.87;101205.98;109949;1251;20534;-74
2023/08/23 07:05:08;;;;;;;;;20.00;18.00;;;;;23.52;46.87;101208.23;109972;1250;22436;-75
2023/08/23 07:07:34;;;;;;;;;14.00;14.00;;;;;23.59;46.77;101211.13;109980;1260;20195;-74
2023/08/23 07:10:00;;;;;;;;;17.00;14.00;;;;;23.66;46.59;101212.75;110001;1265;20866;-74
2023/08/23 07:12:27;;;;;;;;;16.50;14.00;;;;;23.70;46.48;101216.13;110013;1266;20158;-74
2023/08/23 07:14:53;;;;;;;;;15.00;14.00;;;;;23.72;46.03;101216.95;110023;1251;20022;-74
2023/08/23 07:17:19;;;;;;;;;16.00;16.00;;;;;23.83;45.44;101216.52;110072;1259;23580;-73
2023/08/23 07:19:47;;;;;;;;;16.67;15.33;;;;;23.91;45.35;101215.89;110044;1265;20132;-74
2023/08/23 07:22:13;;;;;;;;;17.33;17.00;;;;;23.98;46.04;101215.36;110000;1266;20616;-78
2023/08/23 07:24:39;;;;;;;;;18.00;15.00;;;;;24.08;46.36;101216.73;109994;1251;22342;-73
2023/08/23 07:27:05;;;;;;;;;18.00;17.00;;;;;24.09;46.79;101214.59;110036;1250;23097;-75
2023/08/23 07:29:31;;;;;;;;;17.00;15.00;;;;;24.07;47.06;101211.92;110005;1266;23589;-73
2023/08/23 07:31:57;;;;;;;;;17.67;16.00;;;;;24.18;46.94;101214.55;109662;1251;465985;-75
2023/08/23 07:34:23;;;;;;;;;15.00;14.00;;;;;24.32;46.77;101213.67;109970;1260;20259;-75
2023/08/23 07:36:49;;;;;;;;;15.00;14.00;;;;;24.50;46.42;101211.77;109951;1251;20840;-75
2023/08/23 07:39:15;;;;;;;;;11.00;10.00;;;;;24.53;46.52;101212.73;109967;1250;20913;-74
2023/08/23 07:41:42;;;;;;;;;9.00;9.00;;;;;24.82;44.85;101214.48;109936;1251;22955;-74
2023/08/23 07:44:08;;;;;;;;;10.00;10.00;;;;;24.91;44.24;101212.65;109961;1258;23572;-74
2023/08/23 07:46:34;;;;;;;;;9.00;9.00;;;;;25.07;43.02;101209.14;109961;1266;18973;-74
2023/08/23 07:49:00;;;;;;;;;7.00;7.00;;;;;25.01;42.47;101203.83;110025;1250;22704;-74
2023/08/23 07:51:26;;;;;;;;;10.00;9.50;;;;;24.95;42.14;101208.13;109985;1265;19269;-74
2023/08/23 07:53:52;;;;;;;;;9.00;8.00;;;;;25.07;42.22;101207.83;109965;1251;21867;-75
2023/08/23 07:56:19;;;;;;;;;10.50;9.50;;;;;25.11;42.13;101205.98;109993;1251;23157;-74
2023/08/23 07:58:45;;;;;;;;;13.50;10.00;;;;;25.13;42.15;101207.72;109967;1250;22968;-75
2023/08/23 08:01:11;;;;;;;;;11.00;11.00;;;;;25.19;42.31;101206.41;109974;1259;23451;-74
2023/08/23 08:03:37;;;;;;;;;18.00;16.00;;;;;25.38;42.28;101209.66;109955;1251;23023;-74
2023/08/23 08:06:03;;;;;;;;;16.00;16.00;;;;;25.28;42.87;101212.02;109977;1265;19441;-76
2023/08/23 08:08:29;;;;;;;;;12.00;11.00;;;;;25.49;43.03;101214.10;110034;1251;20913;-74
2023/08/23 08:10:55;;;;;;;;;13.00;12.00;;;;;25.58;42.43;101214.45;110009;1251;22864;-74
2023/08/23 08:13:21;;;;;;;;;16.00;15.50;;;;;25.71;42.22;101210.09;109964;1250;20087;-75
2023/08/23 08:15:47;;;;;;;;;12.00;11.00;;;;;25.51;42.63;101211.29;109961;1266;20870;-76
2023/08/23 08:18:13;;;;;;;;;14.00;14.00;;;;;25.66;42.14;101210.04;110030;1266;23055;-76
2023/08/23 08:20:39;;;;;;;;;12.00;10.00;;;;;25.79;41.53;101212.70;109975;1267;23508;-80
2023/08/23 08:23:06;;;;;;;;;10.67;10.00;;;;;25.73;41.43;101212.65;110009;1265;19565;-80
2023/08/23 08:25:32;;;;;;;;;7.50;7.50;;;;;25.56;41.67;101211.52;110005;1265;21470;-80
2023/08/23 08:27:58;;;;;;;;;11.00;8.00;;;;;25.59;41.05;101208.45;110005;1251;19880;-80
2023/08/23 08:30:24;;;;;;;;;10.00;8.00;;;;;25.55;40.78;101203.83;109978;1266;19480;-81
2023/08/23 08:32:50;;;;;;;;;8.00;8.00;;;;;25.62;40.59;101204.15;110026;1251;21556;-80
2023/08/23 08:35:16;;;;;;;;;7.00;7.00;;;;;25.66;40.37;101205.98;110013;1251;20592;-80
2023/08/23 08:37:42;;;;;;;;;6.00;6.00;;;;;25.67;39.82;101206.84;109989;1266;23488;-82
2023/08/23 08:40:08;;;;;;;;;8.00;7.00;;;;;25.64;40.05;101211.80;109933;1265;20323;-81
2023/08/23 08:42:34;;;;;;;;;6.00;6.00;;;;;25.68;39.70;101209.95;109966;1259;23010;-82
2023/08/23 08:45:00;;;;;;;;;7.00;7.00;;;;;25.75;39.75;101207.80;109999;1251;22315;-80
2023/08/23 08:47:26;;;;;;;;;7.00;6.00;;;;;25.83;39.18;101211.61;110036;1261;21548;-80
2023/08/23 08:49:52;;;;;;;;;5.00;5.00;;;;;25.78;39.34;101210.84;110021;1258;19312;-80
2023/08/23 08:52:18;;;;;;;;;6.00;5.50;;;;;25.81;39.23;101210.36;110012;1251;20809;-80
2023/08/23 08:54:45;;;;;;;;;7.00;7.00;;;;;25.86;39.10;101212.83;110019;1265;20512;-81
2023/08/23 08:57:11;;;;;;;;;7.00;7.00;;;;;25.88;39.35;101211.10;109995;1251;22965;-81
2023/08/23 08:59:37;;;;;;;;;6.50;6.50;;;;;25.97;38.86;101211.42;110006;1251;20787;-80
2023/08/23 09:02:03;;;;;;;;;7.00;6.00;;;;;25.92;39.09;101211.98;110014;1251;21585;-80
2023/08/23 09:04:29;;;;;;;;;3.00;3.00;;;;;25.85;39.54;101212.19;109954;1266;23083;-80
2023/08/23 09:06:55;;;;;;;;;5.00;5.00;;;;;25.92;39.44;101215.40;109963;1260;19398;-80
2023/08/23 09:09:21;;;;;;;;;6.00;5.00;;;;;25.91;39.00;101211.45;110035;1251;21577;-81
2023/08/23 09:11:47;;;;;;;;;6.00;6.00;;;;;25.91;38.96;101210.47;110030;1251;19772;-80
2023/08/23 09:14:13;;;;;;;;;6.00;6.00;;;;;26.02;39.03;101209.86;110018;1266;19320;-80
2023/08/23 09:16:39;;;;;;;;;6.00;6.00;;;;;26.10;38.79;101211.10;110028;1266;21604;-81
2023/08/23 09:19:05;;;;;;;;;6.50;6.50;;;;;26.13;38.71;101206.23;110042;1251;23119;-79
2023/08/23 09:21:31;;;;;;;;;6.00;6.00;;;;;26.10;38.81;101204.47;110067;1266;19723;-79
2023/08/23 09:23:57;;;;;;;;;6.00;6.00;;;;;26.11;38.40;101202.98;110041;1250;21884;-79
2023/08/23 09:26:23;;;;;;;;;7.00;7.00;;;;;26.16;38.26;101199.45;109962;1252;22200;-79
2023/08/23 09:28:49;;;;;;;;;6.00;6.00;;;;;26.28;38.47;101200.81;110014;1250;20779;-79
2023/08/23 09:31:15;;;;;;;;;6.00;6.00;;;;;26.18;38.74;101198.10;110026;1265;20128;-84
2023/08/23 09:33:41;;;;;;;;;7.00;7.00;;;;;26.13;38.38;101195.36;110046;1251;19136;-79
2023/08/23 09:36:08;;;;;;;;;7.00;7.00;;;;;26.28;37.88;101196.15;110018;1250;19418;-80
2023/08/23 09:38:34;;;;;;;;;7.50;7.50;;;;;26.37;37.82;101195.84;110017;1259;20121;-81
2023/08/23 09:41:00;;;;;;;;;7.00;7.00;;;;;26.40;37.88;101190.39;110025;1251;21598;-80
2023/08/23 09:43:26;;;;;;;;;7.00;6.00;;;;;26.25;38.49;101192.63;109954;1265;19503;-81
2023/08/23 09:45:52;;;;;;;;;7.00;7.00;;;;;26.36;37.86;101193.03;109999;1261;21543;-80
2023/08/23 09:48:18;;;;;;;;;8.00;7.00;;;;;26.25;37.82;101195.31;109958;1251;19758;-81
2023/08/23 09:50:45;;;;;;;;;7.67;7.33;;;;;26.26;38.13;101191.66;110024;1251;20784;-81
2023/08/23 09:53:11;;;;;;;;;7.00;7.00;;;;;26.22;38.30;101187.55;110005;1265;20132;-79
2023/08/23 09:55:37;;;;;;;;;6.00;6.00;;;;;26.30;38.49;101190.14;110021;1260;19394;-79
2023/08/23 09:58:03;;;;;;;;;7.00;7.00;;;;;26.38;38.47;101180.86;110019;1266;21135;-79
2023/08/23 10:00:29;;;;;;;;;8.00;7.00;;;;;26.41;38.26;101176.74;110006;1265;20108;-80
2023/08/23 10:02:57;;;;;;;;;6.50;6.50;;;;;26.36;38.29;101180.39;109988;1266;19189;-81
2023/08/23 10:05:23;;;;;;;;;7.00;7.00;;;;;26.17;39.17;101181.80;110028;1265;19373;-81
2023/08/23 10:07:49;;;;;;;;;6.00;6.00;;;;;26.16;39.15;101179.57;110027;1266;20582;-79
2023/08/23 10:10:15;;;;;;;;;7.00;6.00;;;;;26.18;38.88;101180.30;110014;1259;23522;-85
2023/08/23 10:12:41;;;;;;;;;7.00;6.50;;;;;26.10;39.34;101182.00;110008;1251;19554;-87
2023/08/23 10:15:09;;;;;;;;;7.00;7.00;;;;;26.24;39.38;101182.20;110013;1265;20167;-90
2023/08/23 10:17:35;;;;;;;;;8.00;8.00;;;;;26.18;39.95;101180.96;110007;1265;19360;-86
2023/08/23 10:20:01;;;;;;;;;8.00;7.00;;;;;26.20;39.91;101177.59;110014;1251;20761;-85
2023/08/23 10:22:27;;;;;;;;;6.00;6.00;;;;;26.28;39.29;101173.52;110016;1266;20307;-90
2023/08/23 10:24:53;;;;;;;;;7.00;7.00;;;;;26.29;39.72;101173.40;110039;1265;19546;-84
2023/08/23 10:27:19;;;;;;;;;6.00;6.00;;;;;26.25;40.05;101174.76;110013;1259;23116;-81
2023/08/23 10:29:45;;;;;;;;;7.67;7.67;;;;;26.36;39.69;101171.88;110010;1251;22842;-83
2023/08/23 10:32:11;;;;;;;;;8.00;7.00;;;;;26.36;39.36;101169.25;110024;1251;19612;-83
2023/08/23 10:34:37;;;;;;;;;7.00;7.00;;;;;26.45;38.97;101165.65;110032;1251;22197;-82
2023/08/23 10:37:03;;;;;;;;;7.00;7.00;;;;;26.45;38.75;101164.27;110013;1251;21709;-83
2023/08/23 10:39:29;;;;;;;;;32.00;27.00;;;;;26.46;38.77;101161.02;109979;1250;19628;-83
2023/08/23 10:41:55;;;;;;;;;55.00;43.00;;;;;26.43;38.39;101163.54;110012;1265;19541;-81
2023/08/23 10:44:22;;;;;;;;;60.00;44.00;;;;;26.53;38.20;101164.36;109961;1251;21487;-82
2023/08/23 10:46:48;;;;;;;;;68.00;49.00;;;;;26.50;38.42;101160.52;109936;1259;18969;-83
2023/08/23 10:49:14;;;;;;;;;72.50;53.50;;;;;26.41;38.59;101161.64;110023;1251;23502;-82
2023/08/23 10:51:41;;;;;;;;;50.00;42.00;;;;;26.32;39.05;101157.16;109976;1266;22850;-82
2023/08/23 10:54:07;;;;;;;;;46.00;38.00;;;;;26.31;38.99;101154.52;109994;1266;22949;-83
2023/08/23 10:56:34;;;;;;;;;50.00;39.00;;;;;26.33;38.86;101153.52;109944;1259;19437;-82
2023/08/23 10:59:00;;;;;;;;;28.00;26.00;;;;;26.26;39.28;101153.55;110003;1250;21336;-82